Time;durP1;ratioP1;P1;durP2;ratioP2;P2;SDS_P1;SDS_P2;PMS_P1;PMS_P2;Temp;Humidity;BMP_temperature;BMP_pressure;BME280_temperature;BME280_humidity;BME280_pressure;Samples;Min_cycle;Max_cycle;Signal;HPM_P1;HPM_P2
2023/10/31 00:00:39;;;;;;;42.70;39.53;;;12.20;99.90;;;;;;4954424;28;20035;-73
2023/10/31 00:03:05;;;;;;;39.75;36.85;;;12.10;99.90;;;;;;4953937;29;20416;-73
2023/10/31 00:05:31;;;;;;;21.55;19.85;;;12.20;99.90;;;;;;4954698;28;20054;-73
2023/10/31 00:07:57;;;;;;;41.92;39.28;;;12.20;99.90;;;;;;4966171;28;20039;-73
2023/10/31 00:10:23;;;;;;;53.00;49.75;;;12.30;99.90;;;;;;4972084;28;20031;-73
2023/10/31 00:12:50;;;;;;;32.53;30.50;;;12.20;99.90;;;;;;4954989;29;20058;-73
2023/10/31 00:15:16;;;;;;;34.78;32.47;;;12.20;99.90;;;;;;4954903;28;20502;-73
2023/10/31 00:17:42;;;;;;;42.45;39.38;;;12.20;99.90;;;;;;4955016;28;20039;-73
2023/10/31 00:20:08;;;;;;;40.92;38.30;;;12.10;99.90;;;;;;4954849;29;20031;-73
2023/10/31 00:22:34;;;;;;;41.05;38.35;;;12.10;99.90;;;;;;4953309;28;20035;-73
2023/10/31 00:25:00;;;;;;;41.83;39.13;;;12.20;99.90;;;;;;4954775;29;20444;-73
2023/10/31 00:27:26;;;;;;;40.60;37.97;;;12.20;99.90;;;;;;4970622;28;20031;-73
2023/10/31 00:29:52;;;;;;;44.63;41.53;;;12.10;99.90;;;;;;4972787;28;20027;-73
2023/10/31 00:32:18;;;;;;;49.35;46.55;;;12.20;99.90;;;;;;4970984;28;20039;-73
2023/10/31 00:34:45;;;;;;;50.33;47.40;;;12.20;99.90;;;;;;4954460;29;20054;-73
2023/10/31 00:37:11;;;;;;;54.55;51.15;;;12.30;99.90;;;;;;4953792;28;20489;-73
2023/10/31 00:39:37;;;;;;;52.05;49.17;;;12.20;99.90;;;;;;4954478;29;20031;-72
2023/10/31 00:42:03;;;;;;;43.17;40.33;;;12.10;99.90;;;;;;4958121;28;20037;-73
2023/10/31 00:44:29;;;;;;;46.22;43.17;;;12.20;99.90;;;;;;4973705;28;20035;-73
2023/10/31 00:46:55;;;;;;;55.92;52.38;;;12.20;99.90;;;;;;4972650;28;20041;-72
2023/10/31 00:49:21;;;;;;;43.10;40.50;;;12.30;99.90;;;;;;4973655;28;20408;-73
2023/10/31 00:51:47;;;;;;;44.50;41.70;;;12.30;99.90;;;;;;4959801;28;20042;-73
2023/10/31 00:54:14;;;;;;;35.42;33.03;;;12.30;99.90;;;;;;4973106;28;20047;-72
2023/10/31 00:56:40;;;;;;;37.22;34.65;;;12.40;99.90;;;;;;4961431;28;20078;-73
2023/10/31 00:59:06;;;;;;;38.60;36.40;;;12.30;99.90;;;;;;4953451;29;20031;-73
2023/10/31 01:01:32;;;;;;;41.53;39.17;;;12.30;99.90;;;;;;4953564;28;20042;-73
2023/10/31 01:03:58;;;;;;;44.47;41.97;;;12.30;99.90;;;;;;4954168;29;20035;-73
2023/10/31 01:06:24;;;;;;;55.58;52.30;;;12.30;99.90;;;;;;4937580;28;20031;-73
2023/10/31 01:08:50;;;;;;;59.10;55.70;;;12.30;99.90;;;;;;4973544;28;20429;-73
2023/10/31 01:11:16;;;;;;;46.08;43.33;;;12.30;99.90;;;;;;4964052;28;20072;-73
2023/10/31 01:13:42;;;;;;;35.35;33.10;;;12.40;99.90;;;;;;4953897;29;20472;-73
2023/10/31 01:16:08;;;;;;;41.95;39.35;;;12.30;99.90;;;;;;4953311;28;20050;-73
2023/10/31 01:18:34;;;;;;;55.80;52.45;;;12.40;99.90;;;;;;4954045;29;20473;-73
2023/10/31 01:21:01;;;;;;;55.72;52.17;;;12.40;99.90;;;;;;4953512;28;20046;-73
2023/10/31 01:23:27;;;;;;;57.65;54.25;;;12.50;99.90;;;;;;4953062;28;20366;-73
2023/10/31 01:25:53;;;;;;;40.00;37.60;;;12.50;99.90;;;;;;4941394;28;20030;-73
2023/10/31 01:28:19;;;;;;;29.80;27.80;;;12.40;99.90;;;;;;4973147;28;20030;-73
2023/10/31 01:30:45;;;;;;;40.42;37.90;;;12.50;99.90;;;;;;4966353;28;20035;-73
2023/10/31 01:33:11;;;;;;;45.67;42.97;;;12.40;99.90;;;;;;4952820;29;20507;-73
2023/10/31 01:35:37;;;;;;;62.47;58.95;;;12.30;99.90;;;;;;4953070;28;20043;-73
2023/10/31 01:38:03;;;;;;;40.90;38.58;;;12.40;99.90;;;;;;4936914;29;20477;-73
2023/10/31 01:40:29;;;;;;;49.05;45.88;;;12.50;99.90;;;;;;4953827;28;20038;-74
2023/10/31 01:42:56;;;;;;;31.98;29.92;;;12.50;99.90;;;;;;4958008;28;20450;-73
2023/10/31 01:45:22;;;;;;;33.90;31.13;;;12.50;99.90;;;;;;4972154;28;20420;-73
2023/10/31 01:47:48;;;;;;;27.23;25.35;;;12.50;99.90;;;;;;4973096;28;20035;-73
2023/10/31 01:50:14;;;;;;;29.80;27.90;;;12.60;99.90;;;;;;4970517;28;20050;-72
2023/10/31 01:52:40;;;;;;;35.42;33.40;;;12.60;99.90;;;;;;4961577;28;20046;-73
2023/10/31 01:55:07;;;;;;;28.50;26.00;;;12.60;99.90;;;;;;4964011;28;20055;-73
2023/10/31 01:57:33;;;;;;;30.95;27.88;;;12.60;99.90;;;;;;4936367;29;20035;-73
2023/10/31 01:59:59;;;;;;;29.77;27.00;;;12.60;99.90;;;;;;4952594;29;20073;-73
2023/10/31 02:02:25;;;;;;;37.70;35.15;;;12.60;99.90;;;;;;4951557;28;20048;-73
2023/10/31 02:04:52;;;;;;;36.05;33.45;;;12.50;99.90;;;;;;4967235;28;20042;-73
2023/10/31 02:07:18;;;;;;;28.95;26.75;;;12.60;99.90;;;;;;4962387;28;20027;-73
2023/10/31 02:09:44;;;;;;;36.65;34.08;;;12.60;99.90;;;;;;4957087;28;20027;-73
2023/10/31 02:12:10;;;;;;;29.42;27.30;;;12.60;99.90;;;;;;4972890;28;20054;-73
2023/10/31 02:14:36;;;;;;;30.15;27.92;;;12.60;99.90;;;;;;4990913;28;20051;-73
2023/10/31 02:17:02;;;;;;;28.75;26.77;;;12.50;99.90;;;;;;4963367;28;20047;-73
2023/10/31 02:19:28;;;;;;;27.55;25.80;;;12.60;99.90;;;;;;4975886;28;20034;-73
2023/10/31 02:21:55;;;;;;;25.08;22.42;;;12.60;99.90;;;;;;4961693;28;20043;-73
2023/10/31 02:24:21;;;;;;;26.60;24.75;;;12.60;99.90;;;;;;4955823;29;20031;-73
2023/10/31 02:26:47;;;;;;;22.10;20.42;;;12.60;99.90;;;;;;4955299;28;20468;-73
2023/10/31 02:29:13;;;;;;;22.58;20.77;;;12.60;99.90;;;;;;4956641;28;20038;-71
2023/10/31 02:31:39;;;;;;;23.67;21.58;;;12.50;99.90;;;;;;4955929;28;20408;-70
2023/10/31 02:34:05;;;;;;;23.35;21.98;;;12.50;99.90;;;;;;4956392;29;20497;-71
2023/10/31 02:36:33;;;;;;;24.42;22.73;;;12.60;99.90;;;;;;4956721;28;20400;-71
2023/10/31 02:39:00;;;;;;;23.75;22.40;;;12.60;99.90;;;;;;4955502;28;20477;-70
2023/10/31 02:41:26;;;;;;;25.55;23.45;;;12.50;99.90;;;;;;4960652;28;20050;-71
2023/10/31 02:43:54;;;;;;;24.88;21.42;;;12.50;99.90;;;;;;4971307;28;20361;-71
2023/10/31 02:46:21;;;;;;;24.40;21.83;;;12.60;99.90;;;;;;4973778;28;20480;-70
2023/10/31 02:48:47;;;;;;;34.08;31.27;;;12.60;99.90;;;;;;4974320;28;20046;-71
2023/10/31 02:51:13;;;;;;;35.00;31.80;;;12.60;99.90;;;;;;4975219;28;20468;-70
2023/10/31 02:53:39;;;;;;;30.58;28.38;;;12.70;99.90;;;;;;4975394;28;20042;-70
2023/10/31 02:56:05;;;;;;;20.83;18.70;;;12.60;99.90;;;;;;4975120;28;20421;-70
2023/10/31 02:58:31;;;;;;;19.38;17.98;;;12.60;99.90;;;;;;4939799;28;20043;-70
2023/10/31 03:00:57;;;;;;;22.63;20.45;;;12.60;99.90;;;;;;4956512;28;20099;-70
2023/10/31 03:03:23;;;;;;;19.50;18.00;;;12.60;99.90;;;;;;4955805;29;20050;-71
2023/10/31 03:05:49;;;;;;;20.92;19.13;;;12.60;99.90;;;;;;4973385;28;20031;-70
2023/10/31 03:08:20;;;;;;;18.05;16.95;;;12.50;99.90;;;;;;4974165;28;20057;-70
2023/10/31 03:10:49;;;;;;;18.70;17.15;;;12.50;99.90;;;;;;4970741;28;20461;-70
2023/10/31 03:13:17;;;;;;;19.92;18.50;;;12.50;99.90;;;;;;4955923;29;20038;-70
2023/10/31 03:15:43;;;;;;;19.35;18.10;;;12.60;99.90;;;;;;4968032;28;20054;-70
2023/10/31 03:18:10;;;;;;;34.17;31.75;;;12.60;99.90;;;;;;4954462;28;20055;-71
2023/10/31 03:20:36;;;;;;;41.38;39.05;;;12.60;99.90;;;;;;4954369;28;20605;-70
2023/10/31 03:23:02;;;;;;;33.85;31.30;;;12.50;99.90;;;;;;4962914;28;20038;-70
2023/10/31 03:25:28;;;;;;;49.13;45.80;;;12.50;99.90;;;;;;4972468;28;20035;-70
2023/10/31 03:27:54;;;;;;;74.03;69.10;;;12.40;99.90;;;;;;4955733;29;20038;-71
2023/10/31 03:30:20;;;;;;;24.75;22.55;;;12.40;99.90;;;;;;4954918;28;20035;-70
2023/10/31 03:32:46;;;;;;;29.08;22.38;;;12.40;99.90;;;;;;4958304;28;20045;-71
2023/10/31 03:35:12;;;;;;;22.27;19.90;;;12.40;99.90;;;;;;4974226;28;20035;-71
2023/10/31 03:37:41;;;;;;;21.38;19.10;;;12.40;99.90;;;;;;4955489;29;20376;-70
2023/10/31 03:40:08;;;;;;;24.42;21.90;;;12.40;99.90;;;;;;4954431;29;20027;-70
2023/10/31 03:42:34;;;;;;;25.88;23.65;;;12.40;99.90;;;;;;4948528;28;20027;-70
2023/10/31 03:45:01;;;;;;;22.52;19.67;;;12.30;99.90;;;;;;4973256;28;20038;-70
2023/10/31 03:47:27;;;;;;;29.67;27.63;;;12.30;99.90;;;;;;4973740;28;20039;-71
2023/10/31 03:49:53;;;;;;;30.30;28.35;;;12.40;99.90;;;;;;4974591;28;20578;-70
2023/10/31 03:52:19;;;;;;;26.42;24.08;;;12.40;99.90;;;;;;4955852;28;20023;-71
2023/10/31 03:54:45;;;;;;;35.03;32.67;;;12.40;99.90;;;;;;4988500;28;20061;-71
2023/10/31 03:57:11;;;;;;;32.35;30.05;;;12.40;99.90;;;;;;4969472;28;20031;-71
2023/10/31 03:59:38;;;;;;;24.40;22.63;;;12.40;99.90;;;;;;4954891;29;20049;-70
2023/10/31 04:02:04;;;;;;;21.70;19.85;;;12.40;99.90;;;;;;4953224;28;20042;-70
2023/10/31 04:04:30;;;;;;;25.73;23.85;;;12.50;99.90;;;;;;4969340;28;20047;-71
2023/10/31 04:06:56;;;;;;;20.42;18.83;;;12.50;99.90;;;;;;4940566;29;20032;-71
2023/10/31 04:09:22;;;;;;;19.48;17.88;;;12.40;99.90;;;;;;4934818;29;20039;-71
2023/10/31 04:11:48;;;;;;;20.80;19.00;;;12.50;99.90;;;;;;4935520;29;20028;-70
2023/10/31 04:14:14;;;;;;;24.48;22.73;;;12.40;99.90;;;;;;4935220;29;20039;-71
2023/10/31 04:16:45;;;;;;;38.17;36.03;;;12.40;99.90;;;;;;4953861;28;20519;-71
2023/10/31 04:19:14;;;;;;;30.58;28.20;;;12.40;99.90;;;;;;4971316;28;20455;-71
2023/10/31 04:21:40;;;;;;;28.70;26.73;;;12.40;99.90;;;;;;4969029;28;20043;-71
2023/10/31 04:24:06;;;;;;;17.58;16.38;;;12.40;99.90;;;;;;4954850;29;20393;-71
2023/10/31 04:26:32;;;;;;;18.27;16.85;;;12.40;99.90;;;;;;4953050;28;20496;-71
2023/10/31 04:28:58;;;;;;;20.90;19.35;;;12.40;99.90;;;;;;4954142;28;20039;-71
2023/10/31 04:31:24;;;;;;;26.15;24.40;;;12.40;99.90;;;;;;4953881;28;20066;-70
2023/10/31 04:33:50;;;;;;;28.13;25.90;;;12.40;99.90;;;;;;4953522;29;20031;-71
2023/10/31 04:36:16;;;;;;;22.38;20.67;;;12.40;99.90;;;;;;4954196;28;20078;-71
2023/10/31 04:38:43;;;;;;;21.10;19.58;;;12.30;99.90;;;;;;4954570;29;20031;-71
2023/10/31 04:41:09;;;;;;;21.00;19.60;;;12.30;99.90;;;;;;4954172;28;20027;-70
2023/10/31 04:43:35;;;;;;;21.23;19.42;;;12.30;99.90;;;;;;4968858;28;20027;-71
2023/10/31 04:46:01;;;;;;;21.30;19.30;;;12.30;99.90;;;;;;4972585;28;20046;-71
2023/10/31 04:48:27;;;;;;;18.77;16.92;;;12.20;99.90;;;;;;4973705;28;20053;-70
2023/10/31 04:50:54;;;;;;;18.27;16.80;;;12.20;99.90;;;;;;4966174;28;20035;-70
2023/10/31 04:53:20;;;;;;;23.23;21.35;;;12.30;99.90;;;;;;4965947;28;20030;-70
2023/10/31 04:55:46;;;;;;;21.08;19.45;;;12.30;99.90;;;;;;4968054;28;20400;-71
2023/10/31 04:58:12;;;;;;;20.38;18.52;;;12.30;99.90;;;;;;4954036;29;20027;-71
2023/10/31 05:00:38;;;;;;;20.60;19.10;;;12.20;99.90;;;;;;4952714;28;20420;-71
2023/10/31 05:03:04;;;;;;;23.52;21.35;;;12.20;99.90;;;;;;4937361;29;20046;-71
2023/10/31 05:05:30;;;;;;;19.67;17.77;;;12.20;99.90;;;;;;4968579;28;20058;-70
2023/10/31 05:07:56;;;;;;;18.50;16.90;;;12.20;99.90;;;;;;4954081;29;20031;-71
2023/10/31 05:10:23;;;;;;;21.85;20.00;;;12.20;99.90;;;;;;4953791;28;20031;-71
2023/10/31 05:12:50;;;;;;;23.38;21.50;;;12.20;99.90;;;;;;4966613;28;20027;-73
2023/10/31 05:15:16;;;;;;;26.20;24.45;;;12.20;99.90;;;;;;4971466;28;20039;-73
2023/10/31 05:17:42;;;;;;;32.13;29.70;;;12.10;99.90;;;;;;4952832;29;20062;-73
2023/10/31 05:20:09;;;;;;;34.17;31.85;;;12.10;99.90;;;;;;4953973;29;20032;-73
2023/10/31 05:22:36;;;;;;;31.27;29.20;;;12.20;99.90;;;;;;4954180;28;20030;-73
2023/10/31 05:25:03;;;;;;;45.88;31.67;;;12.10;99.90;;;;;;4954013;29;20366;-73
2023/10/31 05:27:29;;;;;;;32.90;30.58;;;12.10;99.90;;;;;;4953202;28;20043;-73
2023/10/31 05:29:55;;;;;;;38.92;36.20;;;12.00;99.90;;;;;;4954149;29;20027;-73
2023/10/31 05:32:21;;;;;;;32.38;29.98;;;12.00;99.90;;;;;;4951988;28;20428;-73
2023/10/31 05:34:47;;;;;;;43.28;40.20;;;12.00;99.90;;;;;;4953015;29;20240;-73
2023/10/31 05:37:13;;;;;;;33.88;31.20;;;12.00;99.90;;;;;;4953476;28;20350;-73
2023/10/31 05:39:39;;;;;;;30.35;28.23;;;12.00;99.90;;;;;;4953015;28;20043;-73
2023/10/31 05:42:05;;;;;;;29.42;27.05;;;12.00;99.90;;;;;;4955260;28;20035;-73
2023/10/31 05:44:31;;;;;;;33.13;30.33;;;11.90;99.90;;;;;;4957572;29;20034;-73
2023/10/31 05:46:57;;;;;;;30.65;28.15;;;11.90;99.90;;;;;;4957805;28;20404;-73
2023/10/31 05:49:24;;;;;;;32.42;30.33;;;11.90;99.90;;;;;;4957583;29;20027;-73
2023/10/31 05:51:51;;;;;;;530.72;50.65;;;11.90;99.90;;;;;;4957162;28;20396;-73
2023/10/31 05:54:17;;;;;;;28.92;26.30;;;12.00;99.90;;;;;;4959478;28;20228;-73
2023/10/31 05:56:44;;;;;;;34.40;31.38;;;12.00;99.90;;;;;;4982358;28;20467;-73
2023/10/31 05:59:11;;;;;;;32.33;29.70;;;12.00;99.90;;;;;;4965719;28;20043;-73
2023/10/31 06:01:37;;;;;;;30.30;27.35;;;12.00;99.90;;;;;;4974506;28;20480;-73
2023/10/31 06:04:03;;;;;;;27.15;24.00;;;12.00;99.90;;;;;;4963754;28;20039;-73
2023/10/31 06:06:31;;;;;;;23.55;21.25;;;12.00;99.90;;;;;;4967557;28;20034;-73
2023/10/31 06:08:57;;;;;;;32.85;30.15;;;12.00;99.90;;;;;;4991544;28;20035;-72
2023/10/31 06:11:24;;;;;;;28.95;26.58;;;12.00;99.90;;;;;;4981570;28;20031;-73
2023/10/31 06:13:51;;;;;;;28.95;26.77;;;12.00;99.90;;;;;;4973442;28;20042;-73
2023/10/31 06:16:17;;;;;;;30.45;27.88;;;12.00;99.90;;;;;;4965945;28;20063;-73
2023/10/31 06:18:43;;;;;;;29.73;26.90;;;12.00;99.90;;;;;;4962531;28;20035;-73
2023/10/31 06:21:09;;;;;;;30.40;27.85;;;12.00;99.90;;;;;;4966772;28;20465;-73
2023/10/31 06:23:36;;;;;;;28.85;25.00;;;12.00;99.90;;;;;;4956851;29;20031;-73
2023/10/31 06:26:03;;;;;;;28.77;26.70;;;12.00;99.90;;;;;;4955036;29;20416;-73
2023/10/31 06:28:29;;;;;;;29.05;26.85;;;12.00;99.90;;;;;;4963881;28;20035;-73
2023/10/31 06:30:55;;;;;;;30.23;25.27;;;12.10;99.90;;;;;;4951772;28;20035;-73
2023/10/31 06:33:21;;;;;;;26.73;23.83;;;12.10;99.90;;;;;;4937559;29;20036;-73
2023/10/31 06:35:47;;;;;;;25.70;23.05;;;12.10;99.90;;;;;;4937335;29;20047;-73
2023/10/31 06:38:13;;;;;;;33.35;30.73;;;12.10;99.90;;;;;;4937412;29;20024;-73
2023/10/31 06:40:39;;;;;;;36.00;33.35;;;12.10;99.90;;;;;;4951608;29;20032;-73
2023/10/31 06:43:05;;;;;;;37.63;34.40;;;12.00;99.90;;;;;;4966089;28;20043;-73
2023/10/31 06:45:31;;;;;;;37.20;34.10;;;12.00;99.90;;;;;;4959773;28;20031;-73
2023/10/31 06:47:57;;;;;;;33.03;30.52;;;12.00;99.90;;;;;;4974450;28;20035;-73
2023/10/31 06:50:24;;;;;;;40.80;37.70;;;12.00;99.90;;;;;;4975548;28;20407;-73
2023/10/31 06:52:50;;;;;;;36.60;33.75;;;12.00;99.90;;;;;;4975305;28;20531;-73
2023/10/31 06:55:16;;;;;;;26.80;24.40;;;11.90;99.90;;;;;;4975079;28;20045;-73
2023/10/31 06:57:43;;;;;;;25.63;23.50;;;11.90;99.90;;;;;;4975291;28;20053;-73
2023/10/31 07:00:11;;;;;;;24.30;22.10;;;12.00;99.90;;;;;;4975015;28;20033;-72
2023/10/31 07:02:37;;;;;;;23.65;21.40;;;12.00;99.90;;;;;;4970954;28;20489;-73
2023/10/31 07:05:04;;;;;;;27.77;25.05;;;11.90;99.90;;;;;;4971747;28;20031;-72
2023/10/31 07:07:30;;;;;;;28.90;26.55;;;12.00;99.90;;;;;;4970788;28;20050;-72
2023/10/31 07:09:56;;;;;;;30.10;27.48;;;12.00;99.90;;;;;;4980768;28;20039;-72
2023/10/31 07:12:22;;;;;;;50.95;39.92;;;11.90;99.90;;;;;;4955676;29;20031;-72
2023/10/31 07:14:48;;;;;;;50.20;46.50;;;12.00;99.90;;;;;;4955893;29;20046;-72
2023/10/31 07:17:14;;;;;;;57.42;53.38;;;12.00;99.90;;;;;;4959476;28;20051;-72
2023/10/31 07:19:40;;;;;;;41.30;38.33;;;12.10;99.90;;;;;;4962042;28;20035;-72
2023/10/31 07:22:06;;;;;;;39.78;35.95;;;12.00;99.90;;;;;;4969301;28;20039;-72
2023/10/31 07:24:33;;;;;;;49.40;45.35;;;12.00;99.90;;;;;;4972236;28;20031;-72
2023/10/31 07:26:59;;;;;;;52.17;48.45;;;12.00;99.90;;;;;;4969939;28;20031;-72
2023/10/31 07:29:25;;;;;;;53.03;48.90;;;12.00;99.90;;;;;;4954578;29;20027;-72
2023/10/31 07:31:51;;;;;;;50.40;46.63;;;12.10;99.90;;;;;;4953508;28;20038;-72
2023/10/31 07:34:17;;;;;;;51.70;47.88;;;12.10;99.90;;;;;;4963242;28;20481;-72
2023/10/31 07:36:43;;;;;;;37.30;34.17;;;12.10;99.90;;;;;;4969554;28;20350;-72
2023/10/31 07:39:10;;;;;;;35.50;32.55;;;12.20;99.90;;;;;;4958670;28;20029;-72
2023/10/31 07:41:36;;;;;;;43.60;40.10;;;12.20;99.90;;;;;;4972797;28;20369;-71
2023/10/31 07:44:02;;;;;;;42.88;39.03;;;12.30;99.90;;;;;;4973585;28;20033;-72
2023/10/31 07:46:28;;;;;;;31.73;29.10;;;12.30;99.90;;;;;;4955636;28;20047;-72
2023/10/31 07:48:54;;;;;;;39.53;35.70;;;12.30;99.90;;;;;;4955169;29;20027;-71
2023/10/31 07:51:20;;;;;;;44.30;40.58;;;12.40;99.90;;;;;;4953843;28;20039;-72
2023/10/31 07:53:46;;;;;;;49.78;46.30;;;12.60;99.90;;;;;;4953830;28;20043;-72
2023/10/31 07:56:16;;;;;;;36.22;33.10;;;12.80;99.90;;;;;;4963114;28;20043;-72
2023/10/31 07:58:42;;;;;;;46.30;42.58;;;13.00;99.90;;;;;;4969886;28;20050;-72
2023/10/31 08:01:10;;;;;;;32.92;29.45;;;13.10;99.90;;;;;;4976569;28;20054;-72
2023/10/31 08:03:39;;;;;;;23.33;18.40;;;13.10;99.90;;;;;;4957661;28;20023;-72
2023/10/31 08:06:06;;;;;;;21.50;19.20;;;13.10;99.90;;;;;;4954300;28;20054;-72
2023/10/31 08:08:34;;;;;;;31.25;25.85;;;13.00;99.90;;;;;;4954101;28;20039;-72
2023/10/31 08:11:00;;;;;;;24.73;21.92;;;13.10;99.90;;;;;;4954510;28;20472;-72
2023/10/31 08:13:26;;;;;;;22.05;19.80;;;13.00;99.90;;;;;;4955307;28;20384;-72
2023/10/31 08:15:52;;;;;;;51.08;47.05;;;13.10;99.90;;;;;;4953650;28;20044;-72
2023/10/31 08:18:19;;;;;;;84.13;61.38;;;13.10;99.90;;;;;;4959360;28;20392;-72
2023/10/31 08:20:48;;;;;;;57.42;53.15;;;13.30;99.90;;;;;;4962725;28;20503;-73
2023/10/31 08:23:15;;;;;;;28.55;25.58;;;13.30;99.90;;;;;;4967031;28;20023;-73
2023/10/31 08:25:41;;;;;;;22.67;20.30;;;13.50;99.90;;;;;;4965798;28;20042;-72
2023/10/31 08:28:07;;;;;;;26.58;24.35;;;13.70;99.90;;;;;;4959313;28;20046;-72
2023/10/31 08:30:33;;;;;;;23.95;21.50;;;13.80;99.90;;;;;;4969671;28;20050;-72
2023/10/31 08:33:00;;;;;;;30.70;27.55;;;14.00;99.90;;;;;;4973851;28;20360;-72
2023/10/31 08:35:26;;;;;;;32.33;29.92;;;14.10;99.90;;;;;;4965932;28;20046;-72
2023/10/31 08:37:52;;;;;;;33.63;30.90;;;14.10;99.90;;;;;;4972530;28;20387;-72
2023/10/31 08:40:18;;;;;;;42.15;38.42;;;14.00;99.90;;;;;;4970979;28;20042;-72
2023/10/31 08:42:44;;;;;;;29.52;26.63;;;14.00;99.90;;;;;;4953244;29;20039;-72
2023/10/31 08:45:10;;;;;;;31.52;28.88;;;14.00;99.90;;;;;;4952625;28;20038;-72
2023/10/31 08:47:36;;;;;;;46.15;42.65;;;14.00;99.90;;;;;;4973314;28;20026;-72
2023/10/31 08:50:03;;;;;;;37.45;34.33;;;14.00;99.90;;;;;;4973317;28;20042;-72
2023/10/31 08:52:29;;;;;;;37.55;34.30;;;14.10;99.90;;;;;;4938076;28;20042;-72
2023/10/31 08:54:55;;;;;;;47.67;44.05;;;14.10;99.90;;;;;;4953126;29;20043;-72
2023/10/31 08:57:22;;;;;;;51.97;48.15;;;14.10;99.90;;;;;;4952647;28;20043;-72
2023/10/31 08:59:49;;;;;;;44.50;40.97;;;14.20;99.90;;;;;;4953393;28;20054;-72
2023/10/31 09:02:15;;;;;;;44.95;41.20;;;14.20;99.90;;;;;;4957987;28;20034;-72
2023/10/31 09:04:41;;;;;;;52.38;47.80;;;14.30;99.90;;;;;;4973084;28;20091;-72
2023/10/31 09:07:07;;;;;;;47.55;44.20;;;14.30;99.90;;;;;;4968354;28;20031;-72
2023/10/31 09:09:33;;;;;;;49.83;45.38;;;14.30;99.90;;;;;;4954233;29;20039;-72
2023/10/31 09:11:59;;;;;;;47.03;43.38;;;14.30;99.90;;;;;;4960597;28;20384;-73
2023/10/31 09:14:25;;;;;;;44.35;40.92;;;14.40;99.90;;;;;;4961754;28;20035;-74
2023/10/31 09:16:52;;;;;;;50.95;46.90;;;14.40;99.90;;;;;;4983661;28;20492;-73
2023/10/31 09:19:18;;;;;;;61.28;56.60;;;14.40;99.90;;;;;;4964592;28;20035;-72
2023/10/31 09:21:44;;;;;;;52.88;48.67;;;14.50;99.90;;;;;;4957905;28;20031;-69
2023/10/31 09:24:10;;;;;;;62.67;57.88;;;14.60;99.90;;;;;;4957002;28;20043;-68
2023/10/31 09:26:37;;;;;;;57.05;52.80;;;14.70;99.90;;;;;;4960443;28;20622;-68
2023/10/31 09:29:03;;;;;;;59.03;54.90;;;14.70;99.90;;;;;;4976162;28;20030;-68
2023/10/31 09:31:29;;;;;;;51.92;47.67;;;14.80;99.90;;;;;;4967698;28;20043;-73
2023/10/31 09:33:56;;;;;;;64.93;59.85;;;14.80;99.90;;;;;;4973888;28;20027;-72
2023/10/31 09:36:22;;;;;;;52.50;47.75;;;14.90;99.90;;;;;;4968562;28;20488;-73
2023/10/31 09:38:48;;;;;;;62.33;57.80;;;15.00;99.90;;;;;;4979346;28;20039;-72
2023/10/31 09:41:14;;;;;;;53.95;49.53;;;15.00;99.90;;;;;;4975295;28;20042;-72
2023/10/31 09:43:41;;;;;;;73.22;68.18;;;15.10;99.90;;;;;;4974541;28;20027;-72
2023/10/31 09:46:09;;;;;;;63.88;59.50;;;15.20;99.90;;;;;;4955974;28;20039;-72
2023/10/31 09:48:35;;;;;;;85.00;79.25;;;15.20;99.90;;;;;;4980461;28;20043;-72
2023/10/31 09:51:02;;;;;;;89.25;83.50;;;15.30;99.90;;;;;;4975232;28;20035;-72
2023/10/31 09:53:28;;;;;;;111.22;104.57;;;15.30;99.90;;;;;;4970534;28;20034;-73
2023/10/31 09:55:56;;;;;;;106.60;100.07;;;15.30;99.90;;;;;;4973415;28;20058;-72
2023/10/31 09:58:22;;;;;;;105.30;98.63;;;15.40;99.90;;;;;;4969904;28;20036;-73
2023/10/31 10:00:48;;;;;;;82.22;76.72;;;15.40;99.90;;;;;;4974002;28;20043;-72
2023/10/31 10:03:14;;;;;;;126.28;118.20;;;15.40;99.90;;;;;;4958250;28;20385;-72
2023/10/31 10:05:40;;;;;;;133.88;125.93;;;15.50;99.90;;;;;;4929438;29;20043;-72
2023/10/31 10:08:07;;;;;;;96.82;90.85;;;15.60;99.90;;;;;;4966935;28;20031;-73
2023/10/31 10:10:34;;;;;;;122.90;115.07;;;15.60;99.90;;;;;;4939888;28;20046;-72
2023/10/31 10:13:02;;;;;;;110.55;103.65;;;15.60;99.90;;;;;;4954232;28;20046;-72
2023/10/31 10:15:29;;;;;;;98.43;91.72;;;15.70;99.90;;;;;;4970283;28;20039;-72
2023/10/31 10:17:55;;;;;;;104.05;97.40;;;15.80;99.90;;;;;;4966328;28;20432;-71
2023/10/31 10:20:22;;;;;;;113.80;106.55;;;15.90;99.90;;;;;;4967147;28;20039;-72
2023/10/31 10:22:48;;;;;;;102.05;95.75;;;15.90;99.90;;;;;;4962343;28;20435;-72
2023/10/31 10:25:18;;;;;;;118.30;110.97;;;16.00;99.90;;;;;;4975454;28;20496;-72
2023/10/31 10:27:44;;;;;;;95.40;89.70;;;16.00;99.90;;;;;;4975140;28;20046;-72
2023/10/31 10:30:12;;;;;;;95.93;89.90;;;16.10;99.90;;;;;;4966087;28;20030;-72
2023/10/31 10:32:38;;;;;;;97.72;91.45;;;16.10;99.90;;;;;;4962404;28;20034;-72
2023/10/31 10:35:05;;;;;;;113.55;106.28;;;16.20;99.90;;;;;;4958203;28;20035;-73
2023/10/31 10:37:31;;;;;;;135.00;126.80;;;16.10;99.90;;;;;;4969039;28;20580;-72
2023/10/31 10:39:59;;;;;;;110.82;104.18;;;16.10;99.90;;;;;;4969731;28;20034;-72
2023/10/31 10:42:45;;;;;;;98.25;91.90;;;16.10;99.90;;;;;;4968741;28;20380;-72
2023/10/31 10:45:11;;;;;;;117.38;110.22;;;16.00;99.90;;;;;;4970159;28;20468;-72
2023/10/31 10:47:38;;;;;;;114.03;107.32;;;16.10;99.90;;;;;;4963503;28;20038;-72
2023/10/31 10:50:04;;;;;;;110.50;104.10;;;16.10;99.90;;;;;;4968482;28;20035;-72
2023/10/31 10:52:34;;;;;;;120.75;113.22;;;16.10;99.90;;;;;;4962706;28;20042;-72
2023/10/31 10:55:04;;;;;;;115.25;107.75;;;16.20;99.90;;;;;;4973975;28;20027;-72
2023/10/31 10:57:42;;;;;;;122.72;115.43;;;16.30;99.90;;;;;;4975272;28;20042;-72
2023/10/31 11:00:09;;;;;;;121.68;114.22;;;16.40;99.90;;;;;;4965019;28;20047;-72
2023/10/31 11:02:42;;;;;;;139.95;131.88;;;16.50;99.90;;;;;;4968503;28;20019;-72
2023/10/31 11:05:09;;;;;;;147.63;138.95;;;16.50;99.90;;;;;;4969718;28;20370;-72
2023/10/31 11:07:39;;;;;;;152.40;143.95;;;16.60;99.90;;;;;;4954042;28;20039;-72
2023/10/31 11:10:06;;;;;;;171.10;161.05;;;16.50;99.90;;;;;;4963391;28;20038;-72
2023/10/31 11:12:32;;;;;;;169.48;160.23;;;16.50;99.90;;;;;;4962253;28;20027;-72
2023/10/31 11:15:00;;;;;;;167.65;158.30;;;16.50;99.90;;;;;;4984696;28;20039;-72
2023/10/31 11:17:31;;;;;;;184.05;173.93;;;16.60;99.90;;;;;;4970883;28;20062;-72
2023/10/31 11:19:57;;;;;;;175.52;166.10;;;16.60;99.90;;;;;;4963971;28;20380;-72
2023/10/31 11:22:23;;;;;;;162.07;153.30;;;16.60;99.90;;;;;;4973550;28;20030;-72
2023/10/31 11:24:49;;;;;;;169.48;159.55;;;16.70;99.90;;;;;;4974442;28;20027;-72
2023/10/31 11:27:16;;;;;;;174.27;164.93;;;16.70;99.90;;;;;;4970894;28;20038;-72
2023/10/31 11:29:42;;;;;;;184.23;174.10;;;16.70;99.90;;;;;;4973052;28;20034;-72
2023/10/31 11:32:09;;;;;;;182.95;172.73;;;16.70;99.90;;;;;;4972019;28;20039;-72
2023/10/31 11:34:36;;;;;;;196.88;186.57;;;16.80;99.90;;;;;;4970173;28;20054;-72
2023/10/31 11:37:26;;;;;;;190.90;180.45;;;16.90;99.90;;;;;;4966867;28;20039;-72
2023/10/31 11:40:20;;;;;;;175.98;166.65;;;16.80;99.90;;;;;;4970664;28;20519;-72
2023/10/31 11:42:50;;;;;;;171.93;162.70;;;16.80;99.90;;;;;;4965020;28;20039;-73
2023/10/31 11:45:29;;;;;;;181.83;172.00;;;16.70;99.90;;;;;;4969204;28;20049;-72
2023/10/31 11:47:55;;;;;;;171.23;161.65;;;16.70;99.90;;;;;;4974457;28;20278;-72
2023/10/31 11:50:21;;;;;;;191.18;180.93;;;16.70;99.90;;;;;;4969502;28;20480;-72
2023/10/31 11:53:07;;;;;;;189.75;179.65;;;16.70;99.90;;;;;;4956198;28;20030;-72
2023/10/31 11:55:39;;;;;;;175.07;165.48;;;16.70;99.90;;;;;;4968851;28;20055;-72
2023/10/31 11:58:15;;;;;;;177.98;168.35;;;16.60;99.90;;;;;;4972766;28;20062;-72
2023/10/31 12:00:41;;;;;;;143.65;135.65;;;16.60;99.90;;;;;;4971259;28;20037;-72
2023/10/31 12:03:07;;;;;;;166.63;157.93;;;16.50;99.90;;;;;;4953893;28;20042;-73
2023/10/31 12:05:33;;;;;;;156.38;147.77;;;16.40;99.90;;;;;;4968223;28;20050;-74
2023/10/31 12:07:59;;;;;;;168.55;159.80;;;16.50;99.90;;;;;;4968383;28;20043;-70
2023/10/31 12:10:29;;;;;;;140.07;132.40;;;16.40;99.90;;;;;;4955501;28;20031;-70
2023/10/31 12:12:56;;;;;;;134.50;126.85;;;16.40;99.90;;;;;;4954056;28;20043;-70
2023/10/31 12:15:22;;;;;;;105.90;99.57;;;16.30;99.90;;;;;;4965628;28;20040;-70
2023/10/31 12:17:49;;;;;;;99.57;94.07;;;16.20;99.90;;;;;;4970692;28;20051;-70
2023/10/31 12:20:16;;;;;;;103.85;97.85;;;16.20;99.90;;;;;;4966385;28;20043;-69